sensor_id;sensor_type;location;lat;lon;timestamp;P1;durP1;ratioP1;P2;durP2;ratioP2
29688;SDS011;16600;47.444;8.334;2023-03-11T00:02:36;3.88;;;1.90;;
29688;SDS011;16600;47.444;8.334;2023-03-11T00:05:06;3.17;;;1.90;;
29688;SDS011;16600;47.444;8.334;2023-03-11T00:07:37;1.90;;;1.80;;
29688;SDS011;16600;47.444;8.334;2023-03-11T00:10:11;2.28;;;1.98;;
29688;SDS011;16600;47.444;8.334;2023-03-11T00:12:52;3.50;;;2.45;;
29688;SDS011;16600;47.444;8.334;2023-03-11T00:15:24;3.45;;;2.08;;
29688;SDS011;16600;47.444;8.334;2023-03-11T00:17:54;2.63;;;1.90;;
29688;SDS011;16600;47.444;8.334;2023-03-11T00:20:34;2.00;;;1.83;;
29688;SDS011;16600;47.444;8.334;2023-03-11T00:23:25;3.00;;;1.95;;
29688;SDS011;16600;47.444;8.334;2023-03-11T00:25:57;5.13;;;2.55;;
29688;SDS011;16600;47.444;8.334;2023-03-11T00:28:39;2.30;;;2.10;;
29688;SDS011;16600;47.444;8.334;2023-03-11T00:31:16;3.63;;;2.08;;
29688;SDS011;16600;47.444;8.334;2023-03-11T00:34:16;4.13;;;1.80;;
29688;SDS011;16600;47.444;8.334;2023-03-11T00:36:45;2.10;;;1.90;;
29688;SDS011;16600;47.444;8.334;2023-03-11T00:39:23;2.03;;;1.90;;
29688;SDS011;16600;47.444;8.334;2023-03-11T00:41:52;2.28;;;1.80;;
29688;SDS011;16600;47.444;8.334;2023-03-11T00:44:24;3.88;;;1.90;;
29688;SDS011;16600;47.444;8.334;2023-03-11T00:46:56;2.95;;;2.00;;
29688;SDS011;16600;47.444;8.334;2023-03-11T00:49:32;3.25;;;2.30;;
29688;SDS011;16600;47.444;8.334;2023-03-11T00:52:10;3.35;;;2.33;;
29688;SDS011;16600;47.444;8.334;2023-03-11T00:54:41;2.55;;;2.33;;
29688;SDS011;16600;47.444;8.334;2023-03-11T00:57:31;3.13;;;2.50;;
29688;SDS011;16600;47.444;8.334;2023-03-11T01:00:18;2.58;;;2.17;;
29688;SDS011;16600;47.444;8.334;2023-03-11T01:02:58;3.05;;;2.40;;
29688;SDS011;16600;47.444;8.334;2023-03-11T01:05:34;2.63;;;2.42;;
29688;SDS011;16600;47.444;8.334;2023-03-11T01:08:14;2.63;;;2.38;;
29688;SDS011;16600;47.444;8.334;2023-03-11T01:10:46;2.70;;;2.47;;
29688;SDS011;16600;47.444;8.334;2023-03-11T01:13:17;2.75;;;2.20;;
29688;SDS011;16600;47.444;8.334;2023-03-11T01:15:47;5.15;;;2.85;;
29688;SDS011;16600;47.444;8.334;2023-03-11T01:18:27;3.65;;;2.60;;
29688;SDS011;16600;47.444;8.334;2023-03-11T01:20:53;2.92;;;2.33;;
29688;SDS011;16600;47.444;8.334;2023-03-11T01:23:44;2.92;;;2.63;;
29688;SDS011;16600;47.444;8.334;2023-03-11T01:26:12;3.03;;;2.63;;
29688;SDS011;16600;47.444;8.334;2023-03-11T01:28:58;3.60;;;2.75;;
29688;SDS011;16600;47.444;8.334;2023-03-11T01:31:39;2.97;;;2.50;;
29688;SDS011;16600;47.444;8.334;2023-03-11T01:34:17;4.72;;;2.67;;
29688;SDS011;16600;47.444;8.334;2023-03-11T01:36:49;3.40;;;2.50;;
29688;SDS011;16600;47.444;8.334;2023-03-11T01:39:15;4.43;;;2.85;;
29688;SDS011;16600;47.444;8.334;2023-03-11T01:41:44;2.90;;;2.70;;
29688;SDS011;16600;47.444;8.334;2023-03-11T01:44:16;3.28;;;2.60;;
29688;SDS011;16600;47.444;8.334;2023-03-11T01:49:55;3.38;;;2.67;;
29688;SDS011;16600;47.444;8.334;2023-03-11T01:52:29;2.97;;;2.65;;
29688;SDS011;16600;47.444;8.334;2023-03-11T01:54:59;3.35;;;3.05;;
29688;SDS011;16600;47.444;8.334;2023-03-11T01:57:28;3.80;;;2.90;;
29688;SDS011;16600;47.444;8.334;2023-03-11T02:02:52;3.85;;;3.20;;
29688;SDS011;16600;47.444;8.334;2023-03-11T02:06:09;5.05;;;3.08;;
29688;SDS011;16600;47.444;8.334;2023-03-11T02:08:27;3.95;;;3.40;;
29688;SDS011;16600;47.444;8.334;2023-03-11T02:11:04;4.05;;;2.80;;
29688;SDS011;16600;47.444;8.334;2023-03-11T02:13:40;3.33;;;3.03;;
29688;SDS011;16600;47.444;8.334;2023-03-11T02:16:35;3.70;;;3.40;;
29688;SDS011;16600;47.444;8.334;2023-03-11T02:22:18;3.67;;;3.33;;
29688;SDS011;16600;47.444;8.334;2023-03-11T02:27:37;3.60;;;3.27;;
29688;SDS011;16600;47.444;8.334;2023-03-11T02:30:09;3.13;;;2.83;;
29688;SDS011;16600;47.444;8.334;2023-03-11T02:32:45;3.40;;;3.10;;
29688;SDS011;16600;47.444;8.334;2023-03-11T02:35:16;3.95;;;3.45;;
29688;SDS011;16600;47.444;8.334;2023-03-11T02:37:46;5.10;;;3.40;;
29688;SDS011;16600;47.444;8.334;2023-03-11T02:43:25;3.65;;;3.20;;
29688;SDS011;16600;47.444;8.334;2023-03-11T02:46:01;3.42;;;3.13;;
29688;SDS011;16600;47.444;8.334;2023-03-11T02:48:35;2.90;;;2.70;;
29688;SDS011;16600;47.444;8.334;2023-03-11T02:51:07;3.90;;;3.60;;
29688;SDS011;16600;47.444;8.334;2023-03-11T02:53:48;4.18;;;3.38;;
29688;SDS011;16600;47.444;8.334;2023-03-11T02:56:22;3.90;;;3.40;;
29688;SDS011;16600;47.444;8.334;2023-03-11T02:58:56;5.45;;;4.22;;
29688;SDS011;16600;47.444;8.334;2023-03-11T03:01:27;4.22;;;3.88;;
29688;SDS011;16600;47.444;8.334;2023-03-11T03:03:56;3.95;;;3.65;;
29688;SDS011;16600;47.444;8.334;2023-03-11T03:06:41;4.03;;;3.63;;
29688;SDS011;16600;47.444;8.334;2023-03-11T03:09:13;4.45;;;3.83;;
29688;SDS011;16600;47.444;8.334;2023-03-11T03:11:47;4.22;;;3.85;;
29688;SDS011;16600;47.444;8.334;2023-03-11T03:14:17;3.88;;;3.58;;
29688;SDS011;16600;47.444;8.334;2023-03-11T03:16:44;3.97;;;3.67;;
29688;SDS011;16600;47.444;8.334;2023-03-11T03:19:13;4.65;;;4.10;;
29688;SDS011;16600;47.444;8.334;2023-03-11T03:21:45;4.70;;;4.20;;
29688;SDS011;16600;47.444;8.334;2023-03-11T03:24:17;3.90;;;3.58;;
29688;SDS011;16600;47.444;8.334;2023-03-11T03:26:49;4.43;;;4.03;;
29688;SDS011;16600;47.444;8.334;2023-03-11T03:29:29;5.75;;;4.20;;
29688;SDS011;16600;47.444;8.334;2023-03-11T03:32:04;4.03;;;3.72;;
29688;SDS011;16600;47.444;8.334;2023-03-11T03:34:52;5.28;;;4.32;;
29688;SDS011;16600;47.444;8.334;2023-03-11T03:37:35;4.40;;;4.00;;
29688;SDS011;16600;47.444;8.334;2023-03-11T03:40:07;4.38;;;3.97;;
29688;SDS011;16600;47.444;8.334;2023-03-11T03:42:59;4.78;;;4.28;;
29688;SDS011;16600;47.444;8.334;2023-03-11T03:45:35;4.63;;;4.20;;
29688;SDS011;16600;47.444;8.334;2023-03-11T03:48:09;4.72;;;4.28;;
29688;SDS011;16600;47.444;8.334;2023-03-11T03:50:40;6.22;;;4.45;;
29688;SDS011;16600;47.444;8.334;2023-03-11T03:53:24;5.15;;;3.72;;
29688;SDS011;16600;47.444;8.334;2023-03-11T03:58:36;4.40;;;4.00;;
29688;SDS011;16600;47.444;8.334;2023-03-11T04:01:07;4.97;;;4.38;;
29688;SDS011;16600;47.444;8.334;2023-03-11T04:03:47;5.15;;;4.32;;
29688;SDS011;16600;47.444;8.334;2023-03-11T04:06:22;4.35;;;3.95;;
29688;SDS011;16600;47.444;8.334;2023-03-11T04:08:56;9.57;;;4.35;;
29688;SDS011;16600;47.444;8.334;2023-03-11T04:11:32;6.13;;;4.38;;
29688;SDS011;16600;47.444;8.334;2023-03-11T04:14:18;5.00;;;3.95;;
29688;SDS011;16600;47.444;8.334;2023-03-11T04:16:54;4.82;;;4.30;;
29688;SDS011;16600;47.444;8.334;2023-03-11T04:19:25;4.20;;;3.80;;
29688;SDS011;16600;47.444;8.334;2023-03-11T04:21:55;5.78;;;4.13;;
29688;SDS011;16600;47.444;8.334;2023-03-11T04:24:31;4.50;;;3.65;;
29688;SDS011;16600;47.444;8.334;2023-03-11T04:26:59;4.53;;;4.07;;
29688;SDS011;16600;47.444;8.334;2023-03-11T04:29:38;4.50;;;4.10;;
29688;SDS011;16600;47.444;8.334;2023-03-11T04:32:22;4.97;;;4.55;;
29688;SDS011;16600;47.444;8.334;2023-03-11T04:34:52;4.22;;;3.83;;
29688;SDS011;16600;47.444;8.334;2023-03-11T04:37:21;4.35;;;3.67;;
29688;SDS011;16600;47.444;8.334;2023-03-11T04:39:51;5.22;;;4.72;;
29688;SDS011;16600;47.444;8.334;2023-03-11T04:42:24;4.83;;;4.43;;
29688;SDS011;16600;47.444;8.334;2023-03-11T04:44:55;4.88;;;4.38;;
29688;SDS011;16600;47.444;8.334;2023-03-11T04:47:22;5.22;;;4.22;;
29688;SDS011;16600;47.444;8.334;2023-03-11T04:50:02;3.92;;;3.17;;
29688;SDS011;16600;47.444;8.334;2023-03-11T04:52:39;4.35;;;3.95;;
29688;SDS011;16600;47.444;8.334;2023-03-11T04:55:11;5.03;;;4.53;;
29688;SDS011;16600;47.444;8.334;2023-03-11T04:57:40;4.70;;;4.10;;
29688;SDS011;16600;47.444;8.334;2023-03-11T05:03:40;4.53;;;4.13;;
29688;SDS011;16600;47.444;8.334;2023-03-11T05:06:14;5.32;;;4.82;;
29688;SDS011;16600;47.444;8.334;2023-03-11T05:08:48;6.18;;;4.93;;
29688;SDS011;16600;47.444;8.334;2023-03-11T05:11:38;4.40;;;4.00;;
29688;SDS011;16600;47.444;8.334;2023-03-11T05:14:19;4.65;;;4.25;;
29688;SDS011;16600;47.444;8.334;2023-03-11T05:17:07;4.82;;;4.40;;
29688;SDS011;16600;47.444;8.334;2023-03-11T05:19:40;4.85;;;4.32;;
29688;SDS011;16600;47.444;8.334;2023-03-11T05:22:24;6.10;;;5.47;;
29688;SDS011;16600;47.444;8.334;2023-03-11T05:25:04;4.60;;;4.20;;
29688;SDS011;16600;47.444;8.334;2023-03-11T05:27:35;5.18;;;4.32;;
29688;SDS011;16600;47.444;8.334;2023-03-11T05:30:15;4.55;;;4.18;;
29688;SDS011;16600;47.444;8.334;2023-03-11T05:32:49;5.00;;;4.50;;
29688;SDS011;16600;47.444;8.334;2023-03-11T05:35:21;6.88;;;5.63;;
29688;SDS011;16600;47.444;8.334;2023-03-11T05:38:17;4.10;;;3.80;;
29688;SDS011;16600;47.444;8.334;2023-03-11T05:40:46;4.70;;;4.30;;
29688;SDS011;16600;47.444;8.334;2023-03-11T05:43:40;4.82;;;4.30;;
29688;SDS011;16600;47.444;8.334;2023-03-11T05:46:24;5.53;;;3.80;;
29688;SDS011;16600;47.444;8.334;2023-03-11T05:49:03;4.30;;;3.92;;
29688;SDS011;16600;47.444;8.334;2023-03-11T05:52:09;4.85;;;4.22;;
29688;SDS011;16600;47.444;8.334;2023-03-11T05:54:43;5.47;;;4.97;;
29688;SDS011;16600;47.444;8.334;2023-03-11T05:57:22;6.13;;;4.45;;
29688;SDS011;16600;47.444;8.334;2023-03-11T05:59:54;4.90;;;4.38;;
29688;SDS011;16600;47.444;8.334;2023-03-11T06:02:34;4.63;;;4.13;;
29688;SDS011;16600;47.444;8.334;2023-03-11T06:05:09;7.93;;;4.93;;
29688;SDS011;16600;47.444;8.334;2023-03-11T06:07:49;5.78;;;5.22;;
29688;SDS011;16600;47.444;8.334;2023-03-11T06:10:30;6.65;;;5.47;;
29688;SDS011;16600;47.444;8.334;2023-03-11T06:13:03;5.22;;;4.82;;
29688;SDS011;16600;47.444;8.334;2023-03-11T06:15:40;9.77;;;6.70;;
29688;SDS011;16600;47.444;8.334;2023-03-11T06:18:18;8.90;;;6.70;;
29688;SDS011;16600;47.444;8.334;2023-03-11T06:20:50;16.23;;;7.55;;
29688;SDS011;16600;47.444;8.334;2023-03-11T06:23:23;12.30;;;7.28;;
29688;SDS011;16600;47.444;8.334;2023-03-11T06:25:58;13.93;;;8.77;;
29688;SDS011;16600;47.444;8.334;2023-03-11T06:28:28;8.93;;;7.38;;
29688;SDS011;16600;47.444;8.334;2023-03-11T06:31:36;10.77;;;7.78;;
29688;SDS011;16600;47.444;8.334;2023-03-11T06:34:02;9.32;;;8.00;;
29688;SDS011;16600;47.444;8.334;2023-03-11T06:36:32;21.95;;;8.75;;
29688;SDS011;16600;47.444;8.334;2023-03-11T06:39:01;10.70;;;7.65;;
29688;SDS011;16600;47.444;8.334;2023-03-11T06:41:35;8.77;;;7.68;;
29688;SDS011;16600;47.444;8.334;2023-03-11T06:44:09;13.00;;;7.22;;
29688;SDS011;16600;47.444;8.334;2023-03-11T06:46:39;9.73;;;7.55;;
29688;SDS011;16600;47.444;8.334;2023-03-11T06:49:14;8.63;;;7.72;;
29688;SDS011;16600;47.444;8.334;2023-03-11T06:51:45;9.05;;;7.45;;
29688;SDS011;16600;47.444;8.334;2023-03-11T06:54:13;7.47;;;6.72;;
29688;SDS011;16600;47.444;8.334;2023-03-11T06:56:48;16.35;;;10.02;;
29688;SDS011;16600;47.444;8.334;2023-03-11T06:59:14;11.82;;;9.43;;
29688;SDS011;16600;47.444;8.334;2023-03-11T07:01:47;16.63;;;10.68;;
29688;SDS011;16600;47.444;8.334;2023-03-11T07:07:06;17.80;;;12.65;;
29688;SDS011;16600;47.444;8.334;2023-03-11T07:09:42;16.25;;;12.52;;
29688;SDS011;16600;47.444;8.334;2023-03-11T07:12:32;14.48;;;12.40;;
29688;SDS011;16600;47.444;8.334;2023-03-11T07:15:04;14.27;;;12.77;;
29688;SDS011;16600;47.444;8.334;2023-03-11T07:17:34;20.48;;;13.90;;
29688;SDS011;16600;47.444;8.334;2023-03-11T07:20:21;20.20;;;12.80;;
29688;SDS011;16600;47.444;8.334;2023-03-11T07:22:55;12.43;;;11.02;;
29688;SDS011;16600;47.444;8.334;2023-03-11T07:25:38;18.88;;;13.27;;
29688;SDS011;16600;47.444;8.334;2023-03-11T07:28:13;17.48;;;13.15;;
29688;SDS011;16600;47.444;8.334;2023-03-11T07:30:42;16.25;;;13.20;;
29688;SDS011;16600;47.444;8.334;2023-03-11T07:33:19;21.00;;;13.05;;
29688;SDS011;16600;47.444;8.334;2023-03-11T07:35:58;16.92;;;12.55;;
29688;SDS011;16600;47.444;8.334;2023-03-11T07:38:31;18.42;;;13.43;;
29688;SDS011;16600;47.444;8.334;2023-03-11T07:41:03;20.50;;;13.80;;
29688;SDS011;16600;47.444;8.334;2023-03-11T07:43:40;23.55;;;14.52;;
29688;SDS011;16600;47.444;8.334;2023-03-11T07:46:18;19.05;;;15.02;;
29688;SDS011;16600;47.444;8.334;2023-03-11T07:48:50;15.05;;;11.27;;
29688;SDS011;16600;47.444;8.334;2023-03-11T07:51:29;9.32;;;8.35;;
29688;SDS011;16600;47.444;8.334;2023-03-11T07:54:04;8.32;;;7.50;;
29688;SDS011;16600;47.444;8.334;2023-03-11T07:56:37;10.23;;;6.32;;
29688;SDS011;16600;47.444;8.334;2023-03-11T07:59:09;9.00;;;6.10;;
29688;SDS011;16600;47.444;8.334;2023-03-11T08:01:43;7.60;;;6.88;;
29688;SDS011;16600;47.444;8.334;2023-03-11T08:04:17;12.75;;;6.65;;
29688;SDS011;16600;47.444;8.334;2023-03-11T08:06:51;8.32;;;6.70;;
29688;SDS011;16600;47.444;8.334;2023-03-11T08:09:18;8.77;;;6.90;;
29688;SDS011;16600;47.444;8.334;2023-03-11T08:11:50;16.55;;;9.02;;
29688;SDS011;16600;47.444;8.334;2023-03-11T08:14:33;10.02;;;8.20;;
29688;SDS011;16600;47.444;8.334;2023-03-11T08:19:33;8.32;;;6.20;;
29688;SDS011;16600;47.444;8.334;2023-03-11T08:22:17;5.40;;;4.90;;
29688;SDS011;16600;47.444;8.334;2023-03-11T08:24:50;5.80;;;4.70;;
29688;SDS011;16600;47.444;8.334;2023-03-11T08:27:26;3.85;;;3.38;;
29688;SDS011;16600;47.444;8.334;2023-03-11T08:29:58;3.30;;;2.78;;
29688;SDS011;16600;47.444;8.334;2023-03-11T08:32:27;5.72;;;3.33;;
29688;SDS011;16600;47.444;8.334;2023-03-11T08:35:03;3.73;;;2.63;;
29688;SDS011;16600;47.444;8.334;2023-03-11T08:37:35;2.85;;;2.20;;
29688;SDS011;16600;47.444;8.334;2023-03-11T08:40:07;3.97;;;2.30;;
29688;SDS011;16600;47.444;8.334;2023-03-11T08:42:58;2.70;;;2.30;;
29688;SDS011;16600;47.444;8.334;2023-03-11T08:45:30;5.10;;;2.28;;
29688;SDS011;16600;47.444;8.334;2023-03-11T08:48:03;3.75;;;2.63;;
29688;SDS011;16600;47.444;8.334;2023-03-11T08:50:32;2.85;;;2.60;;
29688;SDS011;16600;47.444;8.334;2023-03-11T08:52:58;3.80;;;2.85;;
29688;SDS011;16600;47.444;8.334;2023-03-11T08:55:37;4.63;;;2.70;;
29688;SDS011;16600;47.444;8.334;2023-03-11T08:58:24;4.82;;;3.17;;
29688;SDS011;16600;47.444;8.334;2023-03-11T09:00:59;5.93;;;3.20;;
29688;SDS011;16600;47.444;8.334;2023-03-11T09:03:34;3.55;;;2.83;;
29688;SDS011;16600;47.444;8.334;2023-03-11T09:06:10;3.15;;;2.65;;
29688;SDS011;16600;47.444;8.334;2023-03-11T09:08:43;4.70;;;3.00;;
29688;SDS011;16600;47.444;8.334;2023-03-11T09:11:29;3.90;;;3.22;;
29688;SDS011;16600;47.444;8.334;2023-03-11T09:14:15;2.97;;;2.65;;
29688;SDS011;16600;47.444;8.334;2023-03-11T09:16:45;6.85;;;2.95;;
29688;SDS011;16600;47.444;8.334;2023-03-11T09:19:19;7.35;;;3.05;;
29688;SDS011;16600;47.444;8.334;2023-03-11T09:21:48;4.78;;;3.53;;
29688;SDS011;16600;47.444;8.334;2023-03-11T09:24:20;3.05;;;2.85;;
29688;SDS011;16600;47.444;8.334;2023-03-11T09:26:58;4.13;;;3.22;;
29688;SDS011;16600;47.444;8.334;2023-03-11T09:29:28;5.65;;;3.38;;
29688;SDS011;16600;47.444;8.334;2023-03-11T09:32:08;9.55;;;5.43;;
29688;SDS011;16600;47.444;8.334;2023-03-11T09:34:55;4.65;;;2.80;;
29688;SDS011;16600;47.444;8.334;2023-03-11T09:37:25;3.38;;;2.70;;
29688;SDS011;16600;47.444;8.334;2023-03-11T09:39:58;3.20;;;2.90;;
29688;SDS011;16600;47.444;8.334;2023-03-11T09:42:43;3.15;;;2.20;;
29688;SDS011;16600;47.444;8.334;2023-03-11T09:58:10;2.15;;;1.92;;
29688;SDS011;16600;47.444;8.334;2023-03-11T10:00:47;3.10;;;2.33;;
29688;SDS011;16600;47.444;8.334;2023-03-11T10:03:27;3.15;;;2.58;;
29688;SDS011;16600;47.444;8.334;2023-03-11T10:14:47;3.33;;;2.45;;
29688;SDS011;16600;47.444;8.334;2023-03-11T10:20:00;4.07;;;3.17;;
29688;SDS011;16600;47.444;8.334;2023-03-11T10:22:56;4.32;;;3.83;;
29688;SDS011;16600;47.444;8.334;2023-03-11T10:28:20;5.53;;;3.42;;
29688;SDS011;16600;47.444;8.334;2023-03-11T10:31:00;3.70;;;3.17;;
29688;SDS011;16600;47.444;8.334;2023-03-11T10:33:49;6.47;;;4.47;;
29688;SDS011;16600;47.444;8.334;2023-03-11T10:36:24;5.10;;;3.90;;
29688;SDS011;16600;47.444;8.334;2023-03-11T10:39:00;6.35;;;3.88;;
29688;SDS011;16600;47.444;8.334;2023-03-11T10:41:41;3.50;;;3.13;;
29688;SDS011;16600;47.444;8.334;2023-03-11T10:44:16;5.10;;;3.00;;
29688;SDS011;16600;47.444;8.334;2023-03-11T10:46:50;7.03;;;3.00;;
29688;SDS011;16600;47.444;8.334;2023-03-11T10:49:38;5.38;;;2.97;;
29688;SDS011;16600;47.444;8.334;2023-03-11T10:52:05;4.75;;;3.05;;
29688;SDS011;16600;47.444;8.334;2023-03-11T10:54:44;3.67;;;2.80;;
29688;SDS011;16600;47.444;8.334;2023-03-11T10:57:47;6.30;;;3.28;;
29688;SDS011;16600;47.444;8.334;2023-03-11T11:03:02;4.80;;;3.00;;
29688;SDS011;16600;47.444;8.334;2023-03-11T11:05:35;6.38;;;3.30;;
29688;SDS011;16600;47.444;8.334;2023-03-11T11:08:25;2.92;;;2.63;;
29688;SDS011;16600;47.444;8.334;2023-03-11T11:11:19;3.85;;;2.83;;
29688;SDS011;16600;47.444;8.334;2023-03-11T11:14:12;5.53;;;3.40;;
29688;SDS011;16600;47.444;8.334;2023-03-11T11:16:42;6.70;;;3.53;;
29688;SDS011;16600;47.444;8.334;2023-03-11T11:19:14;4.82;;;3.00;;
29688;SDS011;16600;47.444;8.334;2023-03-11T11:21:55;4.10;;;2.92;;
29688;SDS011;16600;47.444;8.334;2023-03-11T11:24:51;4.40;;;2.80;;
29688;SDS011;16600;47.444;8.334;2023-03-11T11:27:35;4.78;;;2.85;;
29688;SDS011;16600;47.444;8.334;2023-03-11T11:32:34;15.68;;;3.08;;
29688;SDS011;16600;47.444;8.334;2023-03-11T11:35:05;3.85;;;3.05;;
29688;SDS011;16600;47.444;8.334;2023-03-11T11:37:50;3.38;;;2.88;;
29688;SDS011;16600;47.444;8.334;2023-03-11T11:40:29;3.42;;;2.97;;
29688;SDS011;16600;47.444;8.334;2023-03-11T11:43:04;5.28;;;3.13;;
29688;SDS011;16600;47.444;8.334;2023-03-11T11:45:48;4.88;;;2.90;;
29688;SDS011;16600;47.444;8.334;2023-03-11T11:48:23;2.95;;;2.33;;
29688;SDS011;16600;47.444;8.334;2023-03-11T11:50:56;3.67;;;2.50;;
29688;SDS011;16600;47.444;8.334;2023-03-11T12:00:00;4.05;;;3.40;;
29688;SDS011;16600;47.444;8.334;2023-03-11T12:06:00;4.63;;;2.72;;
29688;SDS011;16600;47.444;8.334;2023-03-11T12:08:46;2.92;;;2.40;;
29688;SDS011;16600;47.444;8.334;2023-03-11T12:11:18;4.03;;;2.55;;
29688;SDS011;16600;47.444;8.334;2023-03-11T12:14:07;2.80;;;2.60;;
29688;SDS011;16600;47.444;8.334;2023-03-11T12:17:00;4.15;;;2.20;;
29688;SDS011;16600;47.444;8.334;2023-03-11T12:19:30;2.90;;;2.38;;
29688;SDS011;16600;47.444;8.334;2023-03-11T12:27:46;6.82;;;2.72;;
29688;SDS011;16600;47.444;8.334;2023-03-11T12:30:21;2.90;;;2.60;;
29688;SDS011;16600;47.444;8.334;2023-03-11T12:32:53;2.53;;;2.22;;
29688;SDS011;16600;47.444;8.334;2023-03-11T12:35:28;2.78;;;1.88;;
29688;SDS011;16600;47.444;8.334;2023-03-11T12:38:05;2.45;;;1.50;;
29688;SDS011;16600;47.444;8.334;2023-03-11T12:40:46;1.88;;;1.70;;
29688;SDS011;16600;47.444;8.334;2023-03-11T12:46:06;2.30;;;1.90;;
29688;SDS011;16600;47.444;8.334;2023-03-11T12:57:07;2.50;;;1.70;;
29688;SDS011;16600;47.444;8.334;2023-03-11T13:07:59;2.55;;;2.35;;
29688;SDS011;16600;47.444;8.334;2023-03-11T13:12:54;2.20;;;2.00;;
29688;SDS011;16600;47.444;8.334;2023-03-11T13:15:27;2.42;;;1.83;;
29688;SDS011;16600;47.444;8.334;2023-03-11T13:31:33;3.17;;;2.85;;
29688;SDS011;16600;47.444;8.334;2023-03-11T13:37:08;2.42;;;2.00;;
29688;SDS011;16600;47.444;8.334;2023-03-11T13:42:36;5.53;;;2.50;;
29688;SDS011;16600;47.444;8.334;2023-03-11T13:45:33;4.45;;;2.58;;
29688;SDS011;16600;47.444;8.334;2023-03-11T13:48:06;2.35;;;2.15;;
29688;SDS011;16600;47.444;8.334;2023-03-11T13:50:49;3.33;;;2.50;;
29688;SDS011;16600;47.444;8.334;2023-03-11T13:54:01;3.28;;;2.20;;
29688;SDS011;16600;47.444;8.334;2023-03-11T13:56:32;4.82;;;2.40;;
29688;SDS011;16600;47.444;8.334;2023-03-11T13:59:32;2.47;;;2.28;;
29688;SDS011;16600;47.444;8.334;2023-03-11T14:02:17;2.97;;;2.17;;
29688;SDS011;16600;47.444;8.334;2023-03-11T14:04:52;2.28;;;2.08;;
29688;SDS011;16600;47.444;8.334;2023-03-11T14:07:28;3.15;;;2.53;;
29688;SDS011;16600;47.444;8.334;2023-03-11T14:12:45;3.00;;;2.70;;
29688;SDS011;16600;47.444;8.334;2023-03-11T14:15:19;3.17;;;2.20;;
29688;SDS011;16600;47.444;8.334;2023-03-11T14:17:54;2.42;;;2.05;;
29688;SDS011;16600;47.444;8.334;2023-03-11T14:20:52;2.35;;;2.13;;
29688;SDS011;16600;47.444;8.334;2023-03-11T14:23:21;2.20;;;2.00;;
29688;SDS011;16600;47.444;8.334;2023-03-11T14:26:02;2.05;;;1.85;;
29688;SDS011;16600;47.444;8.334;2023-03-11T14:28:34;2.45;;;2.17;;
29688;SDS011;16600;47.444;8.334;2023-03-11T14:31:33;2.15;;;1.88;;
29688;SDS011;16600;47.444;8.334;2023-03-11T14:34:12;2.45;;;1.95;;
29688;SDS011;16600;47.444;8.334;2023-03-11T14:44:34;2.28;;;2.13;;
29688;SDS011;16600;47.444;8.334;2023-03-11T14:47:37;4.05;;;3.00;;
29688;SDS011;16600;47.444;8.334;2023-03-11T14:50:02;3.65;;;2.50;;
29688;SDS011;16600;47.444;8.334;2023-03-11T14:55:17;2.35;;;2.13;;
29688;SDS011;16600;47.444;8.334;2023-03-11T14:57:51;8.18;;;2.65;;
29688;SDS011;16600;47.444;8.334;2023-03-11T15:00:24;4.03;;;2.22;;
29688;SDS011;16600;47.444;8.334;2023-03-11T15:03:01;2.75;;;2.55;;
29688;SDS011;16600;47.444;8.334;2023-03-11T15:05:43;3.08;;;2.58;;
29688;SDS011;16600;47.444;8.334;2023-03-11T15:08:19;4.28;;;2.90;;
29688;SDS011;16600;47.444;8.334;2023-03-11T15:11:16;5.00;;;2.58;;
29688;SDS011;16600;47.444;8.334;2023-03-11T15:13:52;2.75;;;2.45;;
29688;SDS011;16600;47.444;8.334;2023-03-11T15:16:23;2.95;;;2.50;;
29688;SDS011;16600;47.444;8.334;2023-03-11T15:18:58;2.78;;;2.58;;
29688;SDS011;16600;47.444;8.334;2023-03-11T15:21:32;3.67;;;2.92;;
29688;SDS011;16600;47.444;8.334;2023-03-11T15:24:02;4.32;;;3.05;;
29688;SDS011;16600;47.444;8.334;2023-03-11T15:26:32;2.92;;;2.60;;
29688;SDS011;16600;47.444;8.334;2023-03-11T15:29:14;4.10;;;2.70;;
29688;SDS011;16600;47.444;8.334;2023-03-11T15:31:44;2.85;;;2.38;;
29688;SDS011;16600;47.444;8.334;2023-03-11T15:40:12;3.42;;;3.13;;
29688;SDS011;16600;47.444;8.334;2023-03-11T15:42:33;6.10;;;3.65;;
29688;SDS011;16600;47.444;8.334;2023-03-11T15:45:22;4.03;;;3.38;;
29688;SDS011;16600;47.444;8.334;2023-03-11T15:47:53;3.15;;;2.85;;
29688;SDS011;16600;47.444;8.334;2023-03-11T15:50:26;4.65;;;3.97;;
29688;SDS011;16600;47.444;8.334;2023-03-11T15:52:58;3.15;;;2.85;;
29688;SDS011;16600;47.444;8.334;2023-03-11T15:55:30;4.05;;;3.38;;
29688;SDS011;16600;47.444;8.334;2023-03-11T15:58:05;3.67;;;3.25;;
29688;SDS011;16600;47.444;8.334;2023-03-11T16:00:47;3.20;;;2.90;;
29688;SDS011;16600;47.444;8.334;2023-03-11T16:03:22;3.20;;;2.90;;
29688;SDS011;16600;47.444;8.334;2023-03-11T16:05:57;2.83;;;2.63;;
29688;SDS011;16600;47.444;8.334;2023-03-11T16:08:24;5.68;;;3.25;;
29688;SDS011;16600;47.444;8.334;2023-03-11T16:10:50;3.75;;;3.22;;
29688;SDS011;16600;47.444;8.334;2023-03-11T16:13:19;5.28;;;4.28;;
29688;SDS011;16600;47.444;8.334;2023-03-11T16:15:51;3.92;;;3.53;;
29688;SDS011;16600;47.444;8.334;2023-03-11T16:18:23;3.67;;;3.38;;
29688;SDS011;16600;47.444;8.334;2023-03-11T16:20:50;5.82;;;4.15;;
29688;SDS011;16600;47.444;8.334;2023-03-11T16:23:19;5.65;;;3.53;;
29688;SDS011;16600;47.444;8.334;2023-03-11T16:25:52;6.13;;;3.67;;
29688;SDS011;16600;47.444;8.334;2023-03-11T16:28:20;6.93;;;4.13;;
29688;SDS011;16600;47.444;8.334;2023-03-11T16:30:56;4.80;;;3.53;;
29688;SDS011;16600;47.444;8.334;2023-03-11T16:33:35;4.85;;;4.32;;
29688;SDS011;16600;47.444;8.334;2023-03-11T16:36:09;4.78;;;4.15;;
29688;SDS011;16600;47.444;8.334;2023-03-11T16:38:43;4.90;;;4.43;;
29688;SDS011;16600;47.444;8.334;2023-03-11T16:41:14;4.55;;;4.13;;
29688;SDS011;16600;47.444;8.334;2023-03-11T16:43:46;4.05;;;3.50;;
29688;SDS011;16600;47.444;8.334;2023-03-11T16:46:16;7.10;;;4.10;;
29688;SDS011;16600;47.444;8.334;2023-03-11T16:48:49;4.25;;;3.75;;
29688;SDS011;16600;47.444;8.334;2023-03-11T16:51:20;4.47;;;3.58;;
29688;SDS011;16600;47.444;8.334;2023-03-11T16:53:46;6.68;;;4.35;;
29688;SDS011;16600;47.444;8.334;2023-03-11T16:56:13;4.55;;;4.18;;
29688;SDS011;16600;47.444;8.334;2023-03-11T16:58:43;4.47;;;4.07;;
29688;SDS011;16600;47.444;8.334;2023-03-11T17:03:02;7.53;;;3.63;;
29688;SDS011;16600;47.444;8.334;2023-03-11T17:05:32;5.68;;;4.13;;
29688;SDS011;16600;47.444;8.334;2023-03-11T17:08:02;4.78;;;4.28;;
29688;SDS011;16600;47.444;8.334;2023-03-11T17:10:37;5.72;;;4.35;;
29688;SDS011;16600;47.444;8.334;2023-03-11T17:13:10;5.22;;;4.72;;
29688;SDS011;16600;47.444;8.334;2023-03-11T17:16:00;5.57;;;5.07;;
29688;SDS011;16600;47.444;8.334;2023-03-11T17:18:29;4.95;;;4.28;;
29688;SDS011;16600;47.444;8.334;2023-03-11T17:20:55;5.18;;;4.70;;
29688;SDS011;16600;47.444;8.334;2023-03-11T17:23:22;5.25;;;4.75;;
29688;SDS011;16600;47.444;8.334;2023-03-11T17:25:52;4.25;;;3.85;;
29688;SDS011;16600;47.444;8.334;2023-03-11T17:28:21;4.63;;;4.22;;
29688;SDS011;16600;47.444;8.334;2023-03-11T17:30:50;4.57;;;4.20;;
29688;SDS011;16600;47.444;8.334;2023-03-11T17:33:20;5.18;;;4.60;;
29688;SDS011;16600;47.444;8.334;2023-03-11T17:36:04;6.45;;;4.45;;
29688;SDS011;16600;47.444;8.334;2023-03-11T17:38:44;6.65;;;4.43;;
29688;SDS011;16600;47.444;8.334;2023-03-11T17:41:15;5.50;;;4.55;;
29688;SDS011;16600;47.444;8.334;2023-03-11T17:43:44;5.32;;;4.82;;
29688;SDS011;16600;47.444;8.334;2023-03-11T17:46:14;4.68;;;4.28;;
29688;SDS011;16600;47.444;8.334;2023-03-11T17:48:44;8.25;;;7.13;;
29688;SDS011;16600;47.444;8.334;2023-03-11T17:51:17;6.30;;;5.07;;
29688;SDS011;16600;47.444;8.334;2023-03-11T17:53:44;4.90;;;4.50;;
29688;SDS011;16600;47.444;8.334;2023-03-11T17:56:15;6.70;;;5.47;;